createdAt,value
2018-05-12T00:00:02.936Z,12.80
2018-05-12T00:02:29.512Z,12.80
2018-05-12T00:04:56.237Z,12.80
2018-05-12T00:07:22.453Z,12.80
2018-05-12T00:09:49.405Z,12.80
2018-05-12T00:12:16.113Z,12.80
2018-05-12T00:14:42.333Z,12.80
2018-05-12T00:17:08.568Z,12.80
2018-05-12T00:19:34.789Z,12.70
2018-05-12T00:22:01.796Z,12.50
2018-05-12T00:24:28.752Z,12.60
2018-05-12T00:26:55.711Z,12.50
2018-05-12T00:29:21.933Z,12.50
2018-05-12T00:31:49.601Z,12.40
2018-05-12T00:34:17.000Z,12.40
2018-05-12T00:36:43.229Z,12.30
2018-05-12T00:39:09.986Z,12.30
2018-05-12T00:41:36.226Z,12.30
2018-05-12T00:44:03.125Z,12.30
2018-05-12T00:46:30.736Z,12.30
2018-05-12T00:48:57.592Z,12.30
2018-05-12T00:51:24.216Z,12.20
2018-05-12T00:53:50.436Z,12.10
2018-05-12T00:56:17.152Z,12.20
2018-05-12T00:58:44.109Z,12.10
2018-05-12T01:01:11.714Z,12.10
2018-05-12T01:03:38.621Z,12.00
2018-05-12T01:06:06.028Z,12.10
2018-05-12T01:08:32.733Z,12.10
2018-05-12T01:10:59.693Z,12.20
2018-05-12T01:13:25.916Z,12.20
2018-05-12T01:15:52.909Z,12.20
2018-05-12T01:18:19.572Z,12.20
2018-05-12T01:20:46.176Z,12.20
2018-05-12T01:23:12.425Z,12.30
2018-05-12T01:25:38.646Z,12.20
2018-05-12T01:28:04.893Z,12.20
2018-05-12T01:30:31.125Z,12.20
2018-05-12T01:32:57.437Z,12.20
2018-05-12T01:35:24.221Z,12.20
2018-05-12T01:37:51.225Z,12.20
2018-05-12T01:40:18.182Z,12.30
2018-05-12T01:42:44.741Z,12.20
2018-05-12T01:45:10.968Z,12.20
2018-05-12T01:47:37.648Z,12.20
2018-05-12T01:50:04.428Z,12.20
2018-05-12T01:52:31.381Z,12.20
2018-05-12T01:54:58.681Z,12.20
2018-05-12T01:57:25.584Z,12.20
2018-05-12T01:59:52.541Z,12.20
2018-05-12T02:02:20.216Z,12.10
2018-05-12T02:04:47.672Z,12.10
2018-05-12T02:07:14.999Z,12.10
2018-05-12T02:09:41.204Z,12.10
2018-05-12T02:12:07.413Z,12.10
2018-05-12T02:14:33.657Z,12.00
2018-05-12T02:17:00.376Z,12.00
2018-05-12T02:19:27.322Z,12.00
2018-05-12T02:21:54.305Z,12.00
2018-05-12T02:24:20.552Z,12.00
2018-05-12T02:26:46.773Z,12.00
2018-05-12T02:29:13.623Z,12.00
2018-05-12T02:31:39.832Z,12.00
2018-05-12T02:34:06.873Z,11.90
2018-05-12T02:36:34.338Z,11.90
2018-05-12T02:39:01.289Z,11.90
2018-05-12T02:41:29.164Z,11.90
2018-05-12T02:43:56.574Z,11.80
2018-05-12T02:46:22.799Z,11.80
2018-05-12T02:48:49.441Z,11.70
2018-05-12T02:51:16.076Z,11.60
2018-05-12T02:53:42.290Z,11.60
2018-05-12T02:56:09.021Z,11.60
2018-05-12T02:58:35.960Z,11.50
2018-05-12T03:01:03.133Z,11.40
2018-05-12T03:03:30.096Z,11.50
2018-05-12T03:05:56.826Z,11.50
2018-05-12T03:08:23.783Z,11.60
2018-05-12T03:10:50.763Z,11.60
2018-05-12T03:13:17.009Z,11.60
2018-05-12T03:15:43.768Z,11.60
2018-05-12T03:18:09.981Z,11.70
2018-05-12T03:20:36.220Z,11.70
2018-05-12T03:23:02.457Z,11.80
2018-05-12T03:25:28.656Z,11.70
2018-05-12T03:27:54.959Z,11.80
2018-05-12T03:30:21.217Z,11.80
2018-05-12T03:32:48.176Z,11.90
2018-05-12T03:35:14.782Z,11.80
2018-05-12T03:37:41.448Z,11.90
2018-05-12T03:40:08.428Z,11.90
2018-05-12T03:42:35.100Z,11.90
2018-05-12T03:45:01.752Z,11.90
2018-05-12T03:47:28.554Z,12.00
2018-05-12T03:49:55.497Z,12.00
2018-05-12T03:52:21.716Z,11.90
2018-05-12T03:54:48.675Z,12.00
2018-05-12T03:57:15.928Z,12.00
2018-05-12T03:59:42.884Z,12.10
2018-05-12T04:02:10.500Z,12.10
2018-05-12T04:04:48.976Z,12.00
2018-05-12T04:07:28.140Z,12.10
2018-05-12T04:10:06.720Z,12.10
2018-05-12T04:12:37.263Z,12.10
2018-05-12T04:15:04.900Z,12.10
2018-05-12T04:17:31.900Z,12.20
2018-05-12T04:19:58.152Z,12.20
2018-05-12T04:22:24.392Z,12.30
2018-05-12T04:24:50.607Z,12.30
2018-05-12T04:27:16.895Z,12.30
2018-05-12T04:29:43.872Z,12.40
2018-05-12T04:32:10.184Z,12.40
2018-05-12T04:34:36.676Z,12.40
2018-05-12T04:37:03.396Z,12.50
2018-05-12T04:39:30.312Z,12.60
2018-05-12T04:41:57.272Z,12.80
2018-05-12T04:44:23.472Z,12.80
2018-05-12T04:46:50.001Z,12.90
2018-05-12T04:49:16.688Z,13.00
2018-05-12T04:51:44.053Z,13.10
2018-05-12T04:54:10.283Z,13.20
2018-05-12T04:56:38.040Z,13.40
2018-05-12T04:59:05.454Z,13.40
2018-05-12T05:01:32.164Z,13.40
2018-05-12T05:03:58.392Z,13.60
2018-05-12T05:06:25.232Z,13.60
2018-05-12T05:08:52.172Z,13.80
2018-05-12T05:11:19.215Z,13.80
2018-05-12T05:13:45.440Z,13.90
2018-05-12T05:16:11.653Z,13.90
2018-05-12T05:18:37.880Z,14.00
2018-05-12T05:21:04.095Z,14.00
2018-05-12T05:23:30.410Z,14.10
2018-05-12T05:25:57.372Z,14.30
2018-05-12T05:28:24.048Z,14.30
2018-05-12T05:30:50.361Z,14.40
2018-05-12T05:33:17.085Z,14.50
2018-05-12T05:35:44.778Z,14.60
2018-05-12T05:38:11.439Z,14.60
2018-05-12T05:40:37.677Z,14.60
2018-05-12T05:43:03.917Z,14.70
2018-05-12T05:45:30.708Z,14.80
2018-05-12T05:47:57.997Z,14.90
2018-05-12T05:50:24.656Z,14.90
2018-05-12T05:52:50.864Z,15.00
2018-05-12T05:55:18.348Z,15.10
2018-05-12T05:57:44.952Z,15.20
2018-05-12T06:00:11.961Z,15.30
2018-05-12T06:02:38.165Z,15.30
2018-05-12T06:05:04.820Z,15.30
2018-05-12T06:07:31.464Z,15.40
2018-05-12T06:09:57.693Z,15.40
2018-05-12T06:12:23.911Z,15.60
2018-05-12T06:14:50.155Z,15.60
2018-05-12T06:17:16.365Z,15.70
2018-05-12T06:19:43.743Z,15.90
2018-05-12T06:22:09.961Z,15.90
2018-05-12T06:24:36.181Z,16.10
2018-05-12T06:27:03.188Z,16.20
2018-05-12T06:29:29.693Z,16.20
2018-05-12T06:31:56.368Z,16.30
2018-05-12T06:34:22.904Z,16.30
2018-05-12T06:36:49.565Z,16.40
2018-05-12T06:39:16.292Z,16.40
2018-05-12T06:41:42.990Z,16.50
2018-05-12T06:44:10.284Z,16.70
2018-05-12T06:46:36.829Z,16.60
2018-05-12T06:49:03.413Z,16.70
2018-05-12T06:51:29.944Z,16.70
2018-05-12T06:53:56.144Z,16.70
2018-05-12T06:56:22.897Z,16.80
2018-05-12T06:58:49.173Z,16.90
2018-05-12T07:01:15.463Z,17.10
2018-05-12T07:03:42.506Z,17.20
2018-05-12T07:06:09.097Z,17.30
2018-05-12T07:08:35.360Z,17.30
2018-05-12T07:11:02.343Z,17.60
2018-05-12T07:13:29.018Z,17.50
2018-05-12T07:15:55.240Z,17.60
2018-05-12T07:18:21.884Z,17.80
2018-05-12T07:20:48.568Z,17.80
2018-05-12T07:23:15.536Z,17.90
2018-05-12T07:25:41.733Z,17.90
2018-05-12T07:28:08.949Z,18.00
2018-05-12T07:30:35.378Z,18.10
2018-05-12T07:33:02.039Z,18.20
2018-05-12T07:35:28.256Z,18.30
2018-05-12T07:37:54.974Z,18.40
2018-05-12T07:40:22.440Z,18.50
2018-05-12T07:42:50.077Z,18.50
2018-05-12T07:45:16.992Z,18.50
2018-05-12T07:47:43.649Z,18.60
2018-05-12T07:50:10.285Z,18.60
2018-05-12T07:52:36.922Z,18.70
2018-05-12T07:55:03.148Z,18.80
2018-05-12T07:57:29.746Z,18.90
2018-05-12T07:59:56.709Z,19.10
2018-05-12T08:02:24.353Z,19.20
2018-05-12T08:04:50.550Z,19.20
2018-05-12T08:07:17.400Z,19.40
2018-05-12T08:09:43.605Z,19.50
2018-05-12T08:12:09.849Z,19.60
2018-05-12T08:14:36.504Z,19.60
2018-05-12T08:17:02.740Z,19.70
2018-05-12T08:19:29.514Z,19.80
2018-05-12T08:21:55.718Z,19.80
2018-05-12T08:24:21.930Z,19.90
2018-05-12T08:26:48.786Z,20.00
2018-05-12T08:29:15.712Z,20.10
2018-05-12T08:31:42.658Z,20.30
2018-05-12T08:34:09.616Z,20.30
2018-05-12T08:36:36.606Z,20.40
2018-05-12T08:39:03.761Z,20.40
2018-05-12T08:41:29.991Z,20.40
2018-05-12T08:43:56.221Z,20.50
2018-05-12T08:46:23.111Z,20.60
2018-05-12T08:48:49.780Z,20.60
2018-05-12T08:51:18.172Z,20.70
2018-05-12T08:53:45.725Z,20.80
2018-05-12T08:56:13.249Z,20.90
2018-05-12T08:58:39.457Z,20.90
2018-05-12T09:01:06.264Z,21.10
2018-05-12T09:03:32.481Z,21.20
2018-05-12T09:05:59.260Z,21.40
2018-05-12T09:08:26.254Z,21.40
2018-05-12T09:10:52.471Z,21.40
2018-05-12T09:13:18.708Z,21.40
2018-05-12T09:15:44.926Z,21.40
2018-05-12T09:18:11.239Z,21.60
2018-05-12T09:20:38.544Z,21.80
2018-05-12T09:23:04.757Z,21.70
2018-05-12T09:25:31.342Z,21.80
2018-05-12T09:27:57.963Z,21.80
2018-05-12T09:30:24.166Z,22.00
2018-05-12T09:32:50.422Z,22.00
2018-05-12T09:35:17.445Z,22.10
2018-05-12T09:37:44.400Z,22.20
2018-05-12T09:40:12.005Z,22.20
2018-05-12T09:42:38.319Z,22.20
2018-05-12T09:45:04.489Z,22.30
2018-05-12T09:47:31.012Z,22.40
2018-05-12T09:49:58.319Z,22.40
2018-05-12T09:52:25.703Z,22.50
2018-05-12T09:54:52.607Z,22.60
2018-05-12T09:57:19.484Z,22.60
2018-05-12T09:59:46.949Z,22.60
2018-05-12T10:02:13.908Z,22.80
2018-05-12T10:04:40.126Z,22.80
2018-05-12T10:07:07.430Z,23.00
2018-05-12T10:09:34.106Z,23.00
2018-05-12T10:12:01.717Z,23.00
2018-05-12T10:14:28.853Z,23.00
2018-05-12T10:16:56.358Z,23.30
2018-05-12T10:19:22.668Z,23.30
2018-05-12T10:21:49.337Z,23.40
2018-05-12T10:24:16.215Z,23.40
2018-05-12T10:26:42.863Z,23.60
2018-05-12T10:29:10.557Z,23.60
2018-05-12T10:31:38.222Z,23.80
2018-05-12T10:34:05.669Z,23.80
2018-05-12T10:36:32.381Z,23.80
2018-05-12T10:38:58.651Z,23.90
2018-05-12T10:41:24.840Z,23.80
2018-05-12T10:43:51.085Z,24.00
2018-05-12T10:46:17.601Z,24.10
2018-05-12T10:48:44.451Z,24.30
2018-05-12T10:51:11.477Z,24.20
2018-05-12T10:53:38.437Z,24.40
2018-05-12T10:56:05.131Z,24.40
2018-05-12T10:58:31.355Z,24.50
2018-05-12T11:00:57.589Z,24.60
2018-05-12T11:03:23.847Z,24.60
2018-05-12T11:05:50.608Z,24.70
2018-05-12T11:08:18.173Z,24.90
2018-05-12T11:10:45.162Z,24.90
2018-05-12T11:13:11.389Z,24.90
2018-05-12T11:15:37.657Z,25.00
2018-05-12T11:18:03.889Z,25.10
2018-05-12T11:20:30.757Z,25.20
2018-05-12T11:22:57.736Z,25.30
2018-05-12T11:25:25.797Z,25.50
2018-05-12T11:27:52.400Z,25.40
2018-05-12T11:30:19.126Z,25.60
2018-05-12T11:32:46.157Z,25.70
2018-05-12T11:35:12.421Z,25.80
2018-05-12T11:37:38.651Z,26.00
2018-05-12T11:40:04.905Z,25.90
2018-05-12T11:42:31.533Z,26.00
2018-05-12T11:44:57.800Z,26.00
2018-05-12T11:47:25.965Z,26.00
2018-05-12T11:49:52.759Z,25.90
2018-05-12T11:52:20.142Z,26.30
2018-05-12T11:54:46.993Z,26.30
2018-05-12T11:57:14.016Z,26.30
2018-05-12T11:59:40.980Z,26.50
2018-05-12T12:02:07.212Z,26.50
2018-05-12T12:04:33.945Z,26.20
2018-05-12T12:07:01.305Z,26.00
2018-05-12T12:09:28.273Z,26.20
2018-05-12T12:11:54.477Z,26.20
2018-05-12T12:14:20.717Z,26.50
2018-05-12T12:16:48.109Z,26.90
2018-05-12T12:19:14.760Z,26.90
2018-05-12T12:21:41.420Z,27.00
2018-05-12T12:24:07.638Z,27.00
2018-05-12T12:29:31.293Z,26.20
2018-05-12T12:31:58.698Z,26.10
2018-05-12T12:34:24.941Z,26.10
2018-05-12T12:36:51.565Z,26.00
2018-05-12T12:39:18.313Z,26.10
2018-05-12T12:41:45.017Z,26.40
2018-05-12T12:44:12.445Z,26.80
2018-05-12T12:46:38.689Z,26.70
2018-05-12T12:49:05.293Z,26.80
2018-05-12T12:51:31.989Z,26.80
2018-05-12T12:53:59.984Z,26.90
2018-05-12T12:56:26.782Z,26.90
2018-05-12T12:58:53.079Z,27.10
2018-05-12T13:01:19.356Z,27.40
2018-05-12T13:03:45.664Z,27.70
2018-05-12T13:06:12.269Z,27.50
2018-05-12T13:08:39.233Z,27.30
2018-05-12T13:11:05.487Z,27.30
2018-05-12T13:13:46.865Z,27.60
2018-05-12T13:16:13.520Z,27.60
2018-05-12T13:18:40.534Z,27.40
2018-05-12T13:21:06.743Z,27.40
2018-05-12T13:23:33.611Z,27.60
2018-05-12T13:26:01.186Z,27.80
2018-05-12T13:28:27.427Z,27.80
2018-05-12T13:30:54.321Z,27.30
2018-05-12T13:33:20.649Z,26.90
2018-05-12T13:35:47.557Z,26.30
2018-05-12T13:38:14.282Z,26.30
2018-05-12T13:40:42.072Z,25.90
2018-05-12T13:43:08.285Z,25.90
2018-05-12T13:45:36.140Z,26.10
2018-05-12T13:48:02.771Z,26.10
2018-05-12T13:50:29.874Z,26.00
2018-05-12T13:52:56.496Z,25.90
2018-05-12T13:55:23.503Z,25.80
2018-05-12T13:57:50.148Z,25.80
2018-05-12T14:00:16.388Z,25.80
2018-05-12T14:02:42.605Z,25.90
2018-05-12T14:05:08.924Z,25.90
2018-05-12T14:07:35.544Z,25.90
2018-05-12T14:10:02.549Z,25.80
2018-05-12T14:12:29.225Z,25.70
2018-05-12T14:14:56.080Z,25.80
2018-05-12T14:17:23.102Z,25.40
2018-05-12T14:19:49.350Z,25.40
2018-05-12T14:22:15.601Z,25.20
2018-05-12T14:24:43.056Z,25.20
2018-05-12T14:27:09.261Z,25.20
2018-05-12T14:29:35.521Z,25.20
2018-05-12T14:32:02.193Z,25.30
2018-05-12T14:34:28.397Z,25.30
2018-05-12T14:36:55.264Z,26.10
2018-05-12T14:39:23.759Z,26.90
2018-05-12T14:41:50.453Z,26.90
2018-05-12T14:44:16.692Z,26.80
2018-05-12T14:46:43.576Z,26.50
2018-05-12T14:49:11.153Z,26.60
2018-05-12T14:51:37.832Z,26.60
2018-05-12T14:54:04.056Z,27.00
2018-05-12T14:56:30.866Z,28.00
2018-05-12T14:58:57.846Z,28.80
2018-05-12T15:01:24.085Z,28.80
2018-05-12T15:03:50.334Z,27.90
2018-05-12T15:06:16.854Z,27.00
2018-05-12T15:08:43.581Z,26.30
2018-05-12T15:11:10.416Z,25.90
2018-05-12T15:13:37.830Z,25.30
2018-05-12T15:16:04.049Z,25.20
2018-05-12T15:18:30.293Z,26.00
2018-05-12T15:20:56.823Z,25.70
2018-05-12T15:23:23.074Z,26.00
2018-05-12T15:25:49.388Z,25.20
2018-05-12T15:28:16.422Z,24.70
2018-05-12T15:30:42.633Z,22.60
2018-05-12T15:33:09.262Z,21.40
2018-05-12T15:35:35.969Z,20.70
2018-05-12T15:38:02.244Z,19.90
2018-05-12T15:40:28.469Z,20.20
2018-05-12T15:42:55.561Z,20.40
2018-05-12T15:45:23.761Z,21.30
2018-05-12T15:47:50.488Z,21.30
2018-05-12T15:50:17.236Z,21.10
2018-05-12T15:52:43.592Z,20.50
2018-05-12T15:55:09.837Z,20.00
2018-05-12T15:57:36.719Z,19.70
2018-05-12T16:00:02.977Z,19.70
2018-05-12T16:02:29.944Z,19.30
2018-05-12T16:04:56.785Z,19.30
2018-05-12T16:07:24.455Z,18.90
2018-05-12T16:09:51.428Z,18.80
2018-05-12T16:12:18.280Z,18.80
2018-05-12T16:14:44.536Z,18.60
2018-05-12T16:17:11.173Z,18.50
2018-05-12T16:19:37.976Z,18.40
2018-05-12T16:22:05.053Z,18.30
2018-05-12T16:24:31.302Z,18.20
2018-05-12T16:26:57.641Z,18.20
2018-05-12T16:29:23.888Z,18.10
2018-05-12T16:31:50.785Z,18.10
2018-05-12T16:34:17.810Z,17.90
2018-05-12T16:36:43.985Z,17.90
2018-05-12T16:39:10.226Z,17.90
2018-05-12T16:41:52.405Z,18.00
2018-05-12T16:44:18.637Z,18.10
2018-05-12T16:46:45.480Z,18.10
2018-05-12T16:49:13.767Z,18.00
2018-05-12T16:51:40.509Z,18.00
2018-05-12T16:54:07.479Z,17.90
2018-05-12T16:56:34.198Z,17.90
2018-05-12T16:59:01.183Z,17.90
2018-05-12T17:01:27.433Z,17.90
2018-05-12T17:03:54.377Z,17.80
2018-05-12T17:06:21.252Z,17.70
2018-05-12T17:08:47.896Z,17.70
2018-05-12T17:11:14.105Z,17.60
2018-05-12T17:13:40.814Z,17.50
2018-05-12T17:16:07.512Z,17.40
2018-05-12T17:18:33.721Z,17.40
2018-05-12T17:21:00.589Z,17.40
2018-05-12T17:23:27.382Z,17.30
2018-05-12T17:25:54.372Z,17.20
2018-05-12T17:28:21.001Z,17.20
2018-05-12T17:30:47.238Z,17.30
2018-05-12T17:33:15.111Z,17.20
2018-05-12T17:35:41.973Z,17.20
2018-05-12T17:38:09.324Z,17.10
2018-05-12T17:40:35.631Z,17.00
2018-05-12T17:43:02.198Z,17.20
2018-05-12T17:45:28.461Z,17.10
2018-05-12T17:47:55.350Z,17.00
2018-05-12T17:50:22.815Z,16.90
2018-05-12T17:52:49.773Z,16.90
2018-05-12T17:55:16.008Z,16.90
2018-05-12T17:57:42.613Z,16.90
2018-05-12T18:00:09.656Z,16.80
2018-05-12T18:02:36.853Z,16.80
2018-05-12T18:05:04.168Z,16.70
2018-05-12T18:07:30.964Z,16.70
2018-05-12T18:09:57.205Z,16.70
2018-05-12T18:12:23.456Z,16.60
2018-05-12T18:14:50.096Z,16.70
2018-05-12T18:17:16.396Z,16.70
2018-05-12T18:19:42.569Z,16.70
2018-05-12T18:22:08.867Z,16.70
2018-05-12T18:24:35.861Z,16.50
2018-05-12T18:27:02.518Z,16.40
2018-05-12T18:29:28.757Z,16.50
2018-05-12T18:31:55.587Z,16.50
2018-05-12T18:34:21.832Z,16.60
2018-05-12T18:36:48.623Z,16.50
2018-05-12T18:39:15.605Z,16.50
2018-05-12T18:41:41.834Z,16.40
2018-05-12T18:44:09.006Z,16.40
2018-05-12T18:46:35.761Z,16.40
2018-05-12T18:49:02.624Z,16.40
2018-05-12T18:51:29.277Z,16.40
2018-05-12T18:54:10.429Z,16.30
2018-05-12T18:56:37.105Z,16.10
2018-05-12T18:59:03.336Z,16.00
2018-05-12T19:01:46.201Z,16.00
2018-05-12T19:04:13.049Z,16.00
2018-05-12T19:06:39.716Z,15.90
2018-05-12T19:09:05.971Z,16.00
2018-05-12T19:11:32.741Z,15.90
2018-05-12T19:14:00.133Z,15.90
2018-05-12T19:16:26.376Z,15.80
2018-05-12T19:18:52.733Z,15.80
2018-05-12T19:21:19.445Z,15.70
2018-05-12T19:23:46.264Z,15.70
2018-05-12T19:26:13.840Z,15.70
2018-05-12T19:28:40.045Z,15.70
2018-05-12T19:31:06.274Z,15.70
2018-05-12T19:33:33.010Z,15.70
2018-05-12T19:35:59.232Z,15.60
2018-05-12T19:38:25.492Z,15.50
2018-05-12T19:40:51.749Z,15.50
2018-05-12T19:43:19.387Z,15.40
2018-05-12T19:45:45.630Z,15.40
2018-05-12T19:48:13.083Z,15.20
2018-05-12T19:50:39.810Z,15.20
2018-05-12T19:53:06.025Z,15.10
2018-05-12T19:55:32.268Z,15.10
2018-05-12T19:57:58.984Z,15.10
2018-05-12T20:00:25.720Z,15.10
2018-05-12T20:02:52.668Z,15.00
2018-05-12T20:05:19.976Z,14.90
2018-05-12T20:07:46.768Z,14.90
2018-05-12T20:10:14.184Z,14.80
2018-05-12T20:12:40.420Z,14.80
2018-05-12T20:15:06.629Z,14.80
2018-05-12T20:17:32.880Z,14.70
2018-05-12T20:19:59.109Z,14.80
2018-05-12T20:22:25.698Z,14.70
2018-05-12T20:24:52.655Z,14.50
2018-05-12T20:27:19.605Z,14.50
2018-05-12T20:29:46.613Z,14.50
2018-05-12T20:32:13.713Z,14.50
2018-05-12T20:34:40.677Z,14.40
2018-05-12T20:37:06.963Z,14.40
2018-05-12T20:39:33.709Z,14.30
2018-05-12T20:42:00.597Z,14.30
2018-05-12T20:44:27.584Z,14.20
2018-05-12T20:46:54.364Z,14.20
2018-05-12T20:49:21.436Z,14.20
2018-05-12T20:51:48.924Z,14.10
2018-05-12T20:54:15.144Z,14.10
2018-05-12T20:56:42.557Z,14.00
2018-05-12T20:59:09.190Z,14.10
2018-05-12T21:01:35.420Z,14.00
2018-05-12T21:04:02.567Z,13.90
2018-05-12T21:06:29.823Z,13.80
2018-05-12T21:08:56.124Z,13.80
2018-05-12T21:11:23.629Z,13.70
2018-05-12T21:13:50.835Z,13.70
2018-05-12T21:16:17.923Z,13.70
2018-05-12T21:18:44.792Z,13.70
2018-05-12T21:21:11.024Z,13.70
2018-05-12T21:23:37.274Z,13.70
2018-05-12T21:26:04.185Z,13.70
2018-05-12T21:28:30.419Z,13.70
2018-05-12T21:30:57.305Z,13.70
2018-05-12T21:33:24.312Z,13.70
2018-05-12T21:35:50.889Z,13.70
2018-05-12T21:38:17.139Z,13.70
2018-05-12T21:40:43.881Z,13.80
2018-05-12T21:43:10.110Z,13.80
2018-05-12T21:45:36.365Z,14.00
2018-05-12T21:48:02.968Z,14.10
2018-05-12T21:50:29.749Z,14.10
2018-05-12T21:52:56.416Z,14.20
2018-05-12T21:55:23.393Z,14.10
2018-05-12T21:57:50.032Z,14.10
2018-05-12T22:00:16.312Z,14.10
2018-05-12T22:02:42.536Z,14.10
2018-05-12T22:05:09.265Z,14.00
2018-05-12T22:07:36.048Z,14.00
2018-05-12T22:10:02.309Z,14.10
2018-05-12T22:12:29.272Z,14.10
2018-05-12T22:14:55.653Z,14.00
2018-05-12T22:17:22.296Z,14.10
2018-05-12T22:19:48.536Z,14.10
2018-05-12T22:22:14.760Z,14.10
2018-05-12T22:24:41.038Z,14.20
2018-05-12T22:27:08.405Z,14.40
2018-05-12T22:29:35.376Z,14.50
2018-05-12T22:32:02.101Z,14.40
2018-05-12T22:34:29.089Z,14.40
2018-05-12T22:36:55.317Z,14.40
2018-05-12T22:39:22.333Z,14.50
2018-05-12T22:41:49.314Z,14.50
2018-05-12T22:44:15.553Z,14.50
2018-05-12T22:46:41.816Z,14.50
2018-05-12T22:49:09.637Z,14.50
2018-05-12T22:51:36.888Z,14.50
2018-05-12T22:54:04.349Z,14.50
2018-05-12T22:56:31.965Z,14.50
2018-05-12T22:58:58.183Z,14.50
2018-05-12T23:01:25.303Z,14.50
2018-05-12T23:03:52.751Z,14.50
2018-05-12T23:06:20.439Z,14.50
2018-05-12T23:08:46.696Z,14.50
2018-05-12T23:11:12.919Z,14.40
2018-05-12T23:13:40.357Z,14.50
2018-05-12T23:16:07.976Z,14.70
2018-05-12T23:18:34.260Z,14.70
2018-05-12T23:21:01.104Z,14.70
2018-05-12T23:23:28.072Z,14.60
2018-05-12T23:25:54.719Z,14.60
2018-05-12T23:28:20.932Z,14.60
2018-05-12T23:30:47.888Z,14.60
2018-05-12T23:33:14.894Z,14.70
2018-05-12T23:35:41.102Z,14.60
2018-05-12T23:38:07.408Z,14.60
2018-05-12T23:40:34.440Z,14.60
2018-05-12T23:43:00.671Z,14.60
2018-05-12T23:45:26.894Z,14.50
2018-05-12T23:47:53.985Z,14.50
2018-05-12T23:50:21.404Z,14.40
2018-05-12T23:52:48.201Z,14.30
2018-05-12T23:55:14.425Z,14.40
2018-05-12T23:57:41.995Z,14.30
